createdAt,value
2016-09-27T00:00:13.434Z,16.31
2016-09-27T00:01:14.136Z,16.31
2016-09-27T00:02:14.825Z,16.23
2016-09-27T00:03:15.528Z,16.17
2016-09-27T00:04:16.286Z,16.16
2016-09-27T00:05:17.004Z,16.21
2016-09-27T00:06:17.699Z,16.2
2016-09-27T00:07:18.394Z,16.2
2016-09-27T00:08:19.072Z,16.16
2016-09-27T00:09:19.776Z,16.21
2016-09-27T00:10:20.516Z,16.16
2016-09-27T00:11:21.209Z,16.2
2016-09-27T00:12:21.934Z,16.17
2016-09-27T00:13:22.632Z,16.23
2016-09-27T00:14:23.348Z,16.2
2016-09-27T00:15:24.065Z,16.2
2016-09-27T00:16:24.757Z,16.17
2016-09-27T00:17:25.441Z,16.17
2016-09-27T00:18:26.140Z,16.17
2016-09-27T00:19:26.835Z,16.2
2016-09-27T00:20:27.664Z,16.28
2016-09-27T00:21:28.271Z,16.17
2016-09-27T00:22:28.973Z,16.02
2016-09-27T00:23:29.666Z,16.02
2016-09-27T00:24:30.373Z,16.1
2016-09-27T00:25:31.066Z,16.08
2016-09-27T00:26:31.810Z,16.05
2016-09-27T00:27:32.513Z,16.05
2016-09-27T00:28:33.210Z,16.12
2016-09-27T00:29:33.901Z,15.95
2016-09-27T00:30:34.645Z,16
2016-09-27T00:31:35.347Z,15.98
2016-09-27T00:32:36.053Z,16.04
2016-09-27T00:33:36.748Z,15.98
2016-09-27T00:34:37.435Z,15.92
2016-09-27T00:35:38.142Z,15.86
2016-09-27T00:36:38.859Z,15.82
2016-09-27T00:37:39.532Z,15.84
2016-09-27T00:38:40.215Z,15.97
2016-09-27T00:39:40.903Z,15.84
2016-09-27T00:40:41.604Z,15.84
2016-09-27T00:41:42.303Z,15.84
2016-09-27T00:42:42.995Z,15.88
2016-09-27T00:43:43.696Z,15.97
2016-09-27T00:44:44.383Z,15.97
2016-09-27T00:45:45.071Z,15.92
2016-09-27T00:46:45.757Z,15.94
2016-09-27T00:47:46.440Z,15.97
2016-09-27T00:48:47.129Z,15.94
2016-09-27T00:49:47.810Z,15.92
2016-09-27T00:50:48.493Z,15.95
2016-09-27T00:51:49.180Z,16
2016-09-27T00:52:49.883Z,15.94
2016-09-27T00:53:50.557Z,15.97
2016-09-27T00:54:51.254Z,15.94
2016-09-27T00:55:51.940Z,15.92
2016-09-27T00:56:52.625Z,15.91
2016-09-27T00:57:53.321Z,15.92
2016-09-27T00:58:54.014Z,15.95
2016-09-27T00:59:54.699Z,15.95
2016-09-27T01:00:55.394Z,15.97
2016-09-27T01:01:56.070Z,15.97
2016-09-27T01:02:56.765Z,15.95
2016-09-27T01:03:57.450Z,15.97
2016-09-27T01:04:58.153Z,15.95
2016-09-27T01:05:58.841Z,15.91
2016-09-27T01:06:59.528Z,15.91
2016-09-27T01:08:00.222Z,15.9
2016-09-27T01:09:00.908Z,15.73
2016-09-27T01:10:01.611Z,15.79
2016-09-27T01:11:02.310Z,15.68
2016-09-27T01:12:02.986Z,15.76
2016-09-27T01:13:03.682Z,15.76
2016-09-27T01:14:04.379Z,15.76
2016-09-27T01:15:05.103Z,15.76
2016-09-27T01:16:05.805Z,15.73
2016-09-27T01:17:06.490Z,15.75
2016-09-27T01:18:07.199Z,15.76
2016-09-27T01:19:07.887Z,15.68
2016-09-27T01:20:08.583Z,15.84
2016-09-27T01:21:09.279Z,15.83
2016-09-27T01:22:09.965Z,15.73
2016-09-27T01:23:11.314Z,15.83
2016-09-27T01:24:12.228Z,15.82
2016-09-27T01:25:13.657Z,15.83
2016-09-27T01:26:15.190Z,15.76
2016-09-27T01:27:16.760Z,15.76
2016-09-27T01:28:18.438Z,15.8
2016-09-27T01:29:19.299Z,15.82
2016-09-27T01:30:20.739Z,15.82
2016-09-27T01:31:21.566Z,15.82
2016-09-27T01:32:22.686Z,15.79
2016-09-27T01:33:23.600Z,15.68
2016-09-27T01:34:24.554Z,15.7
2016-09-27T01:35:25.672Z,15.72
2016-09-27T01:36:26.793Z,15.68
2016-09-27T01:37:27.597Z,15.64
2016-09-27T01:38:28.373Z,15.68
2016-09-27T01:39:29.131Z,15.58
2016-09-27T01:40:29.885Z,15.62
2016-09-27T01:41:30.669Z,15.61
2016-09-27T01:42:31.422Z,15.61
2016-09-27T01:43:32.212Z,15.61
2016-09-27T01:44:32.991Z,15.52
2016-09-27T01:45:33.897Z,15.54
2016-09-27T01:46:34.713Z,15.57
2016-09-27T01:47:35.477Z,15.51
2016-09-27T01:48:36.285Z,15.52
2016-09-27T01:49:37.064Z,15.55
2016-09-27T01:50:37.750Z,15.52
2016-09-27T01:51:38.468Z,15.43
2016-09-27T01:52:39.252Z,15.4
2016-09-27T01:53:40.370Z,15.37
2016-09-27T01:54:41.274Z,15.37
2016-09-27T01:55:42.083Z,15.37
2016-09-27T01:56:42.805Z,15.33
2016-09-27T01:57:43.503Z,15.29
2016-09-27T01:58:44.360Z,15.27
2016-09-27T01:59:45.340Z,15.33
2016-09-27T02:00:46.520Z,15.17
2016-09-27T02:01:47.446Z,15.24
2016-09-27T02:02:48.253Z,15.21
2016-09-27T02:03:48.961Z,15.17
2016-09-27T02:04:50.444Z,15.11
2016-09-27T02:05:53.482Z,15.14
2016-09-27T02:06:56.272Z,15.15
2016-09-27T02:07:59.170Z,15.14
2016-09-27T02:09:02.044Z,15.17
2016-09-27T02:10:04.940Z,15.11
2016-09-27T02:11:07.757Z,15.18
2016-09-27T02:12:10.604Z,15.21
2016-09-27T02:13:13.634Z,15.22
2016-09-27T02:14:16.387Z,15.09
2016-09-27T02:15:19.396Z,15.18
2016-09-27T02:16:22.285Z,15.11
2016-09-27T02:17:24.981Z,15.18
2016-09-27T02:18:26.688Z,15.15
2016-09-27T02:19:27.389Z,15.18
2016-09-27T02:20:28.087Z,15.19
2016-09-27T02:21:28.773Z,15.18
2016-09-27T02:22:29.480Z,15.14
2016-09-27T02:23:30.181Z,15.14
2016-09-27T02:24:30.875Z,15.07
2016-09-27T02:25:31.585Z,15.07
2016-09-27T02:26:32.291Z,15.14
2016-09-27T02:27:33.017Z,15.1
2016-09-27T02:28:33.660Z,15.09
2016-09-27T02:29:34.352Z,15.07
2016-09-27T02:30:35.059Z,15.09
2016-09-27T02:31:35.734Z,15.17
2016-09-27T02:32:36.433Z,15.1
2016-09-27T02:33:37.131Z,15.03
2016-09-27T02:34:37.840Z,15.09
2016-09-27T02:35:38.534Z,15.09
2016-09-27T02:36:39.223Z,15.09
2016-09-27T02:37:39.925Z,15.03
2016-09-27T02:38:40.615Z,15.09
2016-09-27T02:39:41.358Z,15.04
2016-09-27T02:40:42.043Z,15.09
2016-09-27T02:41:42.753Z,15.04
2016-09-27T02:42:43.440Z,14.99
2016-09-27T02:43:44.125Z,14.99
2016-09-27T02:44:44.818Z,14.97
2016-09-27T02:45:45.507Z,14.91
2016-09-27T02:46:46.208Z,14.91
2016-09-27T02:47:46.898Z,14.89
2016-09-27T02:48:47.586Z,14.91
2016-09-27T02:49:48.294Z,14.86
2016-09-27T02:50:48.987Z,14.89
2016-09-27T02:51:49.673Z,14.89
2016-09-27T02:52:50.358Z,14.92
2016-09-27T02:53:51.055Z,14.92
2016-09-27T02:54:51.750Z,14.84
2016-09-27T02:55:52.465Z,14.92
2016-09-27T02:56:53.156Z,14.89
2016-09-27T02:57:53.859Z,14.81
2016-09-27T02:58:54.542Z,14.81
2016-09-27T02:59:55.236Z,14.86
2016-09-27T03:00:55.946Z,14.85
2016-09-27T03:01:56.608Z,14.86
2016-09-27T03:02:57.324Z,14.85
2016-09-27T03:03:58.013Z,14.85
2016-09-27T03:04:58.710Z,14.81
2016-09-27T03:05:59.396Z,14.78
2016-09-27T03:07:00.107Z,14.73
2016-09-27T03:08:00.788Z,14.81
2016-09-27T03:09:01.488Z,14.72
2016-09-27T03:10:02.162Z,14.73
2016-09-27T03:11:02.844Z,14.69
2016-09-27T03:12:03.540Z,14.72
2016-09-27T03:13:04.220Z,14.69
2016-09-27T03:14:04.916Z,14.65
2016-09-27T03:15:05.604Z,14.63
2016-09-27T03:16:06.288Z,14.7
2016-09-27T03:17:06.990Z,14.66
2016-09-27T03:18:07.673Z,14.65
2016-09-27T03:19:08.390Z,14.68
2016-09-27T03:20:09.078Z,14.66
2016-09-27T03:21:09.789Z,14.59
2016-09-27T03:22:10.490Z,14.63
2016-09-27T03:23:11.186Z,14.58
2016-09-27T03:24:11.933Z,14.58
2016-09-27T03:25:12.618Z,14.54
2016-09-27T03:26:13.321Z,14.51
2016-09-27T03:27:14.021Z,14.55
2016-09-27T03:28:14.710Z,14.55
2016-09-27T03:29:15.408Z,14.5
2016-09-27T03:30:16.096Z,14.53
2016-09-27T03:31:16.846Z,14.51
2016-09-27T03:32:17.526Z,14.54
2016-09-27T03:33:18.318Z,14.55
2016-09-27T03:34:19.012Z,14.55
2016-09-27T03:35:19.698Z,14.6
2016-09-27T03:36:20.375Z,14.53
2016-09-27T03:37:21.093Z,14.48
2016-09-27T03:38:21.777Z,14.58
2016-09-27T03:39:22.452Z,14.55
2016-09-27T03:40:23.154Z,14.59
2016-09-27T03:41:23.843Z,14.53
2016-09-27T03:42:24.549Z,14.51
2016-09-27T03:43:25.236Z,14.58
2016-09-27T03:44:25.939Z,14.58
2016-09-27T03:45:26.634Z,14.58
2016-09-27T03:46:27.349Z,14.55
2016-09-27T03:47:28.031Z,14.45
2016-09-27T03:48:28.729Z,14.47
2016-09-27T03:49:29.413Z,14.59
2016-09-27T03:50:30.101Z,14.48
2016-09-27T03:51:30.808Z,14.5
2016-09-27T03:52:31.489Z,14.43
2016-09-27T03:53:32.222Z,14.41
2016-09-27T03:54:32.928Z,14.43
2016-09-27T03:55:33.613Z,14.48
2016-09-27T03:56:34.323Z,14.45
2016-09-27T03:57:35.041Z,14.58
2016-09-27T03:58:35.734Z,14.44
2016-09-27T03:59:36.427Z,14.41
2016-09-27T04:00:37.127Z,14.41
2016-09-27T04:01:37.849Z,14.51
2016-09-27T04:02:38.538Z,14.55
2016-09-27T04:03:39.237Z,14.55
2016-09-27T04:04:39.960Z,14.58
2016-09-27T04:05:40.647Z,14.47
2016-09-27T04:06:41.359Z,14.53
2016-09-27T04:07:42.044Z,14.6
2016-09-27T04:08:42.732Z,14.59
2016-09-27T04:09:43.421Z,14.58
2016-09-27T04:10:44.109Z,14.58
2016-09-27T04:11:44.798Z,14.62
2016-09-27T04:12:45.497Z,14.6
2016-09-27T04:13:46.213Z,14.58
2016-09-27T04:14:46.911Z,14.55
2016-09-27T04:15:47.599Z,14.6
2016-09-27T04:16:48.293Z,14.59
2016-09-27T04:17:49.031Z,14.6
2016-09-27T04:18:49.725Z,14.55
2016-09-27T04:19:50.440Z,14.62
2016-09-27T04:20:51.149Z,14.6
2016-09-27T04:21:51.843Z,14.62
2016-09-27T04:22:52.519Z,14.62
2016-09-27T04:23:53.231Z,14.63
2016-09-27T04:24:53.907Z,14.69
2016-09-27T04:25:54.590Z,14.66
2016-09-27T04:26:55.301Z,14.6
2016-09-27T04:27:56.049Z,14.72
2016-09-27T04:28:56.771Z,14.63
2016-09-27T04:29:57.463Z,14.73
2016-09-27T04:30:58.142Z,14.69
2016-09-27T04:31:58.852Z,14.72
2016-09-27T04:32:59.535Z,14.7
2016-09-27T04:34:00.230Z,14.69
2016-09-27T04:35:01.772Z,14.62
2016-09-27T04:36:02.241Z,14.7
2016-09-27T04:37:04.261Z,14.7
2016-09-27T04:38:04.487Z,14.68
2016-09-27T04:39:05.207Z,14.73
2016-09-27T04:40:05.913Z,14.6
2016-09-27T04:41:06.615Z,14.62
2016-09-27T04:42:07.328Z,14.55
2016-09-27T04:43:08.102Z,14.55
2016-09-27T04:44:08.788Z,14.45
2016-09-27T04:45:09.494Z,14.53
2016-09-27T04:46:10.174Z,14.45
2016-09-27T04:47:10.900Z,14.43
2016-09-27T04:48:11.616Z,14.48
2016-09-27T04:49:12.288Z,14.47
2016-09-27T04:50:12.969Z,14.43
2016-09-27T04:51:13.682Z,14.47
2016-09-27T04:52:14.358Z,14.43
2016-09-27T04:53:15.045Z,14.35
2016-09-27T04:54:15.762Z,14.32
2016-09-27T04:55:16.487Z,14.4
2016-09-27T04:56:17.215Z,14.43
2016-09-27T04:57:17.929Z,14.37
2016-09-27T04:58:18.649Z,14.35
2016-09-27T04:59:19.398Z,14.41
2016-09-27T05:00:20.097Z,14.32
2016-09-27T05:01:20.812Z,14.36
2016-09-27T05:02:21.500Z,14.43
2016-09-27T05:03:22.211Z,14.28
2016-09-27T05:04:22.898Z,14.26
2016-09-27T05:05:23.572Z,14.33
2016-09-27T05:06:24.323Z,14.28
2016-09-27T05:07:25.005Z,14.37
2016-09-27T05:08:25.723Z,14.28
2016-09-27T05:09:26.429Z,14.26
2016-09-27T05:10:27.136Z,14.43
2016-09-27T05:11:27.839Z,14.26
2016-09-27T05:12:28.516Z,14.37
2016-09-27T05:13:29.217Z,14.32
2016-09-27T05:14:29.907Z,14.23
2016-09-27T05:15:30.599Z,14.37
2016-09-27T05:16:31.317Z,14.35
2016-09-27T05:17:32.016Z,14.37
2016-09-27T05:18:32.714Z,14.33
2016-09-27T05:19:33.409Z,14.4
2016-09-27T05:20:34.099Z,14.36
2016-09-27T05:21:34.792Z,14.28
2016-09-27T05:22:35.478Z,14.33
2016-09-27T05:23:36.170Z,14.43
2016-09-27T05:24:36.875Z,14.29
2016-09-27T05:25:37.613Z,14.4
2016-09-27T05:26:38.340Z,14.3
2016-09-27T05:27:39.031Z,14.35
2016-09-27T05:28:39.722Z,14.26
2016-09-27T05:29:40.414Z,14.4
2016-09-27T05:30:41.102Z,14.29
2016-09-27T05:31:41.781Z,14.43
2016-09-27T05:32:42.477Z,14.29
2016-09-27T05:33:43.175Z,14.36
2016-09-27T05:34:43.860Z,14.36
2016-09-27T05:35:44.563Z,14.43
2016-09-27T05:36:45.264Z,14.28
2016-09-27T05:37:45.959Z,14.3
2016-09-27T05:38:46.647Z,14.37
2016-09-27T05:39:47.345Z,14.35
2016-09-27T05:40:48.029Z,14.4
2016-09-27T05:41:48.744Z,14.35
2016-09-27T05:42:49.432Z,14.48
2016-09-27T05:43:50.164Z,14.47
2016-09-27T05:44:50.846Z,14.5
2016-09-27T05:45:51.546Z,14.48
2016-09-27T05:46:52.234Z,14.44
2016-09-27T05:47:52.943Z,14.41
2016-09-27T05:48:53.636Z,14.4
2016-09-27T05:49:54.357Z,14.43
2016-09-27T05:50:55.079Z,14.5
2016-09-27T05:51:55.784Z,14.58
2016-09-27T05:52:56.499Z,14.43
2016-09-27T05:53:57.220Z,14.43
2016-09-27T05:54:57.912Z,14.4
2016-09-27T05:55:58.593Z,14.43
2016-09-27T05:56:59.299Z,14.37
2016-09-27T05:57:59.988Z,14.43
2016-09-27T05:59:00.672Z,14.5
2016-09-27T06:00:01.375Z,14.45
2016-09-27T06:01:02.080Z,14.48
2016-09-27T06:02:02.770Z,14.59
2016-09-27T06:03:03.452Z,14.5
2016-09-27T06:04:04.179Z,14.55
2016-09-27T06:05:04.879Z,14.59
2016-09-27T06:06:05.574Z,14.6
2016-09-27T06:07:06.281Z,14.66
2016-09-27T06:08:06.965Z,14.63
2016-09-27T06:09:07.675Z,14.63
2016-09-27T06:10:08.361Z,14.6
2016-09-27T06:11:09.078Z,14.72
2016-09-27T06:12:09.788Z,14.69
2016-09-27T06:13:10.482Z,14.66
2016-09-27T06:14:11.180Z,14.72
2016-09-27T06:15:11.853Z,14.69
2016-09-27T06:16:12.593Z,14.77
2016-09-27T06:17:13.312Z,14.72
2016-09-27T06:18:13.998Z,14.73
2016-09-27T06:19:14.702Z,14.65
2016-09-27T06:20:15.407Z,14.72
2016-09-27T06:21:16.111Z,14.66
2016-09-27T06:22:16.816Z,14.69
2016-09-27T06:23:17.505Z,14.69
2016-09-27T06:24:18.206Z,14.7
2016-09-27T06:25:18.898Z,14.69
2016-09-27T06:26:19.608Z,14.79
2016-09-27T06:27:20.294Z,14.72
2016-09-27T06:28:21.035Z,14.73
2016-09-27T06:29:21.778Z,14.82
2016-09-27T06:30:22.493Z,14.78
2016-09-27T06:31:23.182Z,14.81
2016-09-27T06:32:23.889Z,14.79
2016-09-27T06:33:24.575Z,14.84
2016-09-27T06:34:25.295Z,14.85
2016-09-27T06:35:26.006Z,14.82
2016-09-27T06:36:26.700Z,14.82
2016-09-27T06:37:27.415Z,14.84
2016-09-27T06:38:28.116Z,14.92
2016-09-27T06:39:28.815Z,15.1
2016-09-27T06:40:29.517Z,15.4
2016-09-27T06:41:30.212Z,15.64
2016-09-27T06:42:30.950Z,16.02
2016-09-27T06:43:31.720Z,16.42
2016-09-27T06:44:32.415Z,16.83
2016-09-27T06:45:33.125Z,17.12
2016-09-27T06:46:33.812Z,17.29
2016-09-27T06:47:34.502Z,17.51
2016-09-27T06:48:35.207Z,17.79
2016-09-27T06:49:35.904Z,18.04
2016-09-27T06:50:36.606Z,18.16
2016-09-27T06:51:37.300Z,18.01
2016-09-27T06:52:38.002Z,18.07
2016-09-27T06:53:38.706Z,18.04
2016-09-27T06:54:39.414Z,18.22
2016-09-27T06:55:40.121Z,18.31
2016-09-27T06:56:40.826Z,18.55
2016-09-27T06:57:41.520Z,18.62
2016-09-27T06:58:42.238Z,18.83
2016-09-27T06:59:42.963Z,18.98
2016-09-27T07:00:43.669Z,18.92
2016-09-27T07:01:44.467Z,18.92
2016-09-27T07:02:45.074Z,19.27
2016-09-27T07:03:45.772Z,19.48
2016-09-27T07:04:46.479Z,19.69
2016-09-27T07:05:47.187Z,19.67
2016-09-27T07:06:47.900Z,19.76
2016-09-27T07:07:48.593Z,19.56
2016-09-27T07:08:49.296Z,19.24
2016-09-27T07:09:49.992Z,19.54
2016-09-27T07:10:50.707Z,19.77
2016-09-27T07:11:51.412Z,20.09
2016-09-27T07:12:52.114Z,20.39
2016-09-27T07:13:52.834Z,20.67
2016-09-27T07:14:53.552Z,20.72
2016-09-27T07:15:54.268Z,20.69
2016-09-27T07:16:54.968Z,20.9
2016-09-27T07:17:55.686Z,20.82
2016-09-27T07:18:56.398Z,21.05
2016-09-27T07:19:57.117Z,21.3
2016-09-27T07:20:57.812Z,21.39
2016-09-27T07:21:58.510Z,21.45
2016-09-27T07:22:59.217Z,21.51
2016-09-27T07:23:59.924Z,21.61
2016-09-27T07:25:00.632Z,21.64
2016-09-27T07:26:01.329Z,21.69
2016-09-27T07:27:02.028Z,21.69
2016-09-27T07:28:02.756Z,21.67
2016-09-27T07:29:03.478Z,21.8
2016-09-27T07:30:04.184Z,21.77
2016-09-27T07:31:04.887Z,21.8
2016-09-27T07:32:05.596Z,21.95
2016-09-27T07:33:06.289Z,21.93
2016-09-27T07:34:06.988Z,21.93
2016-09-27T07:35:07.703Z,21.92
2016-09-27T07:36:08.410Z,21.72
2016-09-27T07:37:09.136Z,21.58
2016-09-27T07:38:09.827Z,21.43
2016-09-27T07:39:10.558Z,21.48
2016-09-27T07:40:11.255Z,21.6
2016-09-27T07:41:11.975Z,21.82
2016-09-27T07:42:12.674Z,21.85
2016-09-27T07:43:13.371Z,21.83
2016-09-27T07:44:14.082Z,21.58
2016-09-27T07:45:14.782Z,21.6
2016-09-27T07:46:15.498Z,21.36
2016-09-27T07:47:16.176Z,21.25
2016-09-27T07:48:16.935Z,21.09
2016-09-27T07:49:17.643Z,20.81
2016-09-27T07:50:18.378Z,20.72
2016-09-27T07:51:19.072Z,20.47
2016-09-27T07:52:19.787Z,20.39
2016-09-27T07:53:20.499Z,20.24
2016-09-27T07:54:21.195Z,20.07
2016-09-27T07:55:21.914Z,20.04
2016-09-27T07:56:22.633Z,20.28
2016-09-27T07:57:23.349Z,20.4
2016-09-27T07:58:24.055Z,20.7
2016-09-27T07:59:24.774Z,20.5
2016-09-27T08:00:25.489Z,20.21
2016-09-27T08:01:26.223Z,20.02
2016-09-27T08:02:26.925Z,20.39
2016-09-27T08:03:27.655Z,20.7
2016-09-27T08:04:28.362Z,20.96
2016-09-27T08:05:29.088Z,21.17
2016-09-27T08:06:29.790Z,21.33
2016-09-27T08:07:30.502Z,21.35
2016-09-27T08:08:31.209Z,20.85
2016-09-27T08:09:31.906Z,21.12
2016-09-27T08:10:32.633Z,21.3
2016-09-27T08:11:33.327Z,21.29
2016-09-27T08:12:34.034Z,21.39
2016-09-27T08:13:34.735Z,21.57
2016-09-27T08:14:35.453Z,20.84
2016-09-27T08:15:36.188Z,20.56
2016-09-27T08:16:36.912Z,20.8
2016-09-27T08:17:37.634Z,20.81
2016-09-27T08:18:38.372Z,21
2016-09-27T08:19:39.085Z,21.11
2016-09-27T08:20:39.819Z,21.11
2016-09-27T08:21:40.527Z,21.22
2016-09-27T08:22:41.238Z,21.36
2016-09-27T08:23:41.976Z,21.58
2016-09-27T08:24:42.821Z,21.35
2016-09-27T08:25:43.524Z,21.29
2016-09-27T08:26:44.237Z,20.82
2016-09-27T08:27:44.963Z,20.82
2016-09-27T08:28:45.705Z,20.96
2016-09-27T08:29:46.416Z,21.12
2016-09-27T08:30:47.143Z,21.29
2016-09-27T08:31:47.868Z,21.48
2016-09-27T08:32:48.614Z,21.51
2016-09-27T08:33:49.330Z,21.55
2016-09-27T08:34:50.033Z,21.55
2016-09-27T08:35:50.757Z,21.55
2016-09-27T08:36:51.472Z,21.6
2016-09-27T08:37:52.188Z,21.55
2016-09-27T08:38:52.899Z,21.48
2016-09-27T08:39:53.612Z,21.36
2016-09-27T08:40:54.323Z,21.12
2016-09-27T08:41:55.036Z,21.15
2016-09-27T08:42:55.745Z,21.14
2016-09-27T08:43:56.449Z,21.21
2016-09-27T08:44:57.162Z,21.22
2016-09-27T08:45:57.946Z,21.22
2016-09-27T08:46:58.673Z,21.25
2016-09-27T08:47:59.411Z,21.33
2016-09-27T08:49:00.121Z,21.4
2016-09-27T08:50:00.828Z,21
2016-09-27T08:51:01.530Z,20.8
2016-09-27T08:52:02.234Z,20.78
2016-09-27T08:53:02.959Z,20.51
2016-09-27T08:54:03.671Z,20.48
2016-09-27T08:55:04.394Z,20.55
2016-09-27T08:56:05.119Z,20.11
2016-09-27T08:57:05.953Z,20
2016-09-27T08:58:06.921Z,20
2016-09-27T08:59:07.742Z,20.02
2016-09-27T09:00:08.729Z,19.91
2016-09-27T09:01:09.702Z,19.76
2016-09-27T09:02:10.294Z,19.77
2016-09-27T09:03:11.013Z,19.77
2016-09-27T09:04:11.774Z,19.74
2016-09-27T09:05:12.566Z,19.74
2016-09-27T09:06:13.267Z,19.79
2016-09-27T09:07:14.030Z,19.7
2016-09-27T09:08:14.793Z,19.36
2016-09-27T09:09:15.562Z,19.16
2016-09-27T09:10:16.406Z,19.18
2016-09-27T09:11:17.112Z,19.22
2016-09-27T09:12:17.887Z,19.3
2016-09-27T09:13:18.666Z,19.3
2016-09-27T09:14:19.601Z,19.3
2016-09-27T09:15:20.379Z,19.34
2016-09-27T09:16:21.135Z,19.29
2016-09-27T09:17:21.871Z,19.22
2016-09-27T09:18:22.593Z,19.24
2016-09-27T09:19:23.303Z,19.24
2016-09-27T09:20:24.006Z,19.24
2016-09-27T09:21:24.732Z,19.29
2016-09-27T09:22:25.439Z,19.24
2016-09-27T09:23:26.141Z,19.21
2016-09-27T09:24:26.833Z,19.19
2016-09-27T09:25:27.540Z,19.12
2016-09-27T09:26:28.234Z,19.14
2016-09-27T09:27:28.927Z,19.09
2016-09-27T09:28:29.639Z,19.16
2016-09-27T09:29:30.365Z,19.14
2016-09-27T09:30:31.136Z,19.08
2016-09-27T09:31:31.844Z,19.18
2016-09-27T09:32:32.564Z,19.07
2016-09-27T09:33:33.282Z,19.09
2016-09-27T09:34:34.007Z,18.93
2016-09-27T09:35:34.739Z,19
2016-09-27T09:36:35.454Z,18.86
2016-09-27T09:37:36.188Z,18.98
2016-09-27T09:38:36.905Z,18.93
2016-09-27T09:39:37.604Z,18.88
2016-09-27T09:40:38.323Z,18.93
2016-09-27T09:41:39.033Z,18.88
2016-09-27T09:42:39.764Z,18.86
2016-09-27T09:43:40.470Z,18.8
2016-09-27T09:44:41.171Z,18.81
2016-09-27T09:45:41.877Z,18.92
2016-09-27T09:46:42.612Z,18.83
2016-09-27T09:47:43.310Z,18.86
2016-09-27T09:48:44.010Z,18.96
2016-09-27T09:49:44.710Z,18.98
2016-09-27T09:50:45.417Z,19
2016-09-27T09:51:46.130Z,18.98
2016-09-27T09:52:46.825Z,18.93
2016-09-27T09:53:47.523Z,18.95
2016-09-27T09:54:48.227Z,19
2016-09-27T09:55:48.923Z,19
2016-09-27T09:56:49.639Z,19.07
2016-09-27T09:57:50.337Z,19.09
2016-09-27T09:58:51.038Z,19.07
2016-09-27T09:59:51.745Z,18.99
2016-09-27T10:00:52.453Z,19
2016-09-27T10:01:53.182Z,19.11
2016-09-27T10:02:53.886Z,19.02
2016-09-27T10:03:54.583Z,19.09
2016-09-27T10:04:55.298Z,18.92
2016-09-27T10:05:56.006Z,18.9
2016-09-27T10:06:56.704Z,18.93
2016-09-27T10:07:57.396Z,18.95
2016-09-27T10:08:58.105Z,18.99
2016-09-27T10:09:58.936Z,18.81
2016-09-27T10:10:59.645Z,18.96
2016-09-27T10:12:00.408Z,19
2016-09-27T10:13:01.115Z,19.02
2016-09-27T10:14:01.808Z,18.89
2016-09-27T10:15:02.512Z,18.9
2016-09-27T10:16:03.212Z,18.95
2016-09-27T10:17:03.900Z,18.96
2016-09-27T10:18:04.626Z,18.96
2016-09-27T10:19:05.324Z,19.04
2016-09-27T10:20:06.037Z,18.99
2016-09-27T10:21:06.741Z,18.99
2016-09-27T10:22:07.447Z,19.12
2016-09-27T10:23:08.199Z,19.08
2016-09-27T10:24:08.922Z,19.07
2016-09-27T10:25:09.624Z,18.98
2016-09-27T10:26:10.391Z,19.08
2016-09-27T10:27:11.085Z,19.19
2016-09-27T10:28:11.789Z,19.21
2016-09-27T10:29:12.498Z,19.29
2016-09-27T10:30:13.199Z,19.24
2016-09-27T10:31:13.907Z,19.26
2016-09-27T10:32:14.600Z,19.21
2016-09-27T10:33:15.299Z,19.21
2016-09-27T10:34:16.007Z,19.26
2016-09-27T10:35:16.716Z,19.26
2016-09-27T10:36:17.438Z,19.18
2016-09-27T10:37:18.154Z,19.27
2016-09-27T10:38:18.849Z,19.36
2016-09-27T10:39:19.565Z,19.37
2016-09-27T10:40:20.256Z,19.47
2016-09-27T10:41:21.019Z,19.37
2016-09-27T10:42:21.719Z,19.36
2016-09-27T10:43:22.433Z,19.34
2016-09-27T10:44:23.121Z,19.34
2016-09-27T10:45:23.814Z,19.36
2016-09-27T10:46:24.513Z,19.33
2016-09-27T10:47:25.211Z,19.47
2016-09-27T10:48:25.908Z,19.47
2016-09-27T10:49:26.654Z,19.48
2016-09-27T10:50:27.405Z,19.52
2016-09-27T10:51:28.105Z,19.52
2016-09-27T10:52:28.808Z,19.56
2016-09-27T10:53:29.497Z,19.59
2016-09-27T10:54:30.216Z,19.54
2016-09-27T10:55:30.925Z,19.63
2016-09-27T10:56:31.645Z,19.55
2016-09-27T10:57:32.354Z,19.56
2016-09-27T10:58:33.089Z,19.45
2016-09-27T10:59:33.794Z,19.51
2016-09-27T11:00:34.516Z,19.41
2016-09-27T11:01:35.223Z,19.3
2016-09-27T11:02:35.929Z,19.14
2016-09-27T11:03:36.637Z,19.11
2016-09-27T11:04:37.345Z,19.09
2016-09-27T11:05:38.048Z,18.96
2016-09-27T11:06:38.804Z,18.9
2016-09-27T11:07:39.542Z,18.86
2016-09-27T11:08:40.218Z,18.9
2016-09-27T11:09:40.915Z,18.9
2016-09-27T11:10:41.615Z,18.81
2016-09-27T11:11:42.311Z,18.88
2016-09-27T11:12:43.022Z,18.86
2016-09-27T11:13:43.719Z,18.81
2016-09-27T11:14:44.415Z,18.92
2016-09-27T11:15:45.166Z,18.8
2016-09-27T11:16:45.859Z,18.86
2016-09-27T11:17:46.579Z,18.92
2016-09-27T11:18:47.266Z,18.95
2016-09-27T11:19:47.983Z,19.02
2016-09-27T11:20:48.696Z,19.04
2016-09-27T11:21:49.443Z,19.07
2016-09-27T11:22:50.142Z,19.02
2016-09-27T11:23:50.867Z,19.02
2016-09-27T11:24:51.586Z,19.15
2016-09-27T11:25:52.299Z,19.12
2016-09-27T11:26:53.003Z,19.14
2016-09-27T11:27:53.758Z,19.22
2016-09-27T11:28:54.457Z,19.22
2016-09-27T11:29:55.149Z,19.27
2016-09-27T11:30:55.875Z,19.27
2016-09-27T11:31:56.595Z,19.34
2016-09-27T11:32:57.299Z,19.24
2016-09-27T11:33:58.005Z,19.41
2016-09-27T11:34:58.719Z,19.56
2016-09-27T11:35:59.422Z,19.63
2016-09-27T11:37:00.135Z,19.63
2016-09-27T11:38:00.851Z,19.69
2016-09-27T11:39:01.552Z,19.63
2016-09-27T11:40:02.246Z,19.79
2016-09-27T11:41:02.960Z,19.76
2016-09-27T11:42:03.834Z,19.79
2016-09-27T11:43:04.343Z,19.74
2016-09-27T11:44:05.046Z,19.77
2016-09-27T11:45:05.785Z,19.74
2016-09-27T11:46:06.489Z,19.85
2016-09-27T11:47:07.186Z,20.02
2016-09-27T11:48:07.888Z,20.1
2016-09-27T11:49:08.674Z,20.25
2016-09-27T11:50:09.382Z,20.22
2016-09-27T11:51:10.094Z,20.1
2016-09-27T11:52:10.791Z,20.11
2016-09-27T11:53:11.498Z,20.02
2016-09-27T11:54:12.191Z,19.99
2016-09-27T11:55:12.892Z,19.94
2016-09-27T11:56:13.589Z,19.92
2016-09-27T11:57:14.285Z,19.99
2016-09-27T11:58:14.975Z,20
2016-09-27T11:59:15.691Z,19.99
2016-09-27T12:00:16.410Z,20.13
2016-09-27T12:01:17.149Z,20.06
2016-09-27T12:02:17.863Z,20.21
2016-09-27T12:03:18.595Z,20.25
2016-09-27T12:04:19.286Z,20.21
2016-09-27T12:05:19.999Z,20.1
2016-09-27T12:06:20.710Z,19.99
2016-09-27T12:07:21.432Z,20
2016-09-27T12:08:22.157Z,20.03
2016-09-27T12:09:22.853Z,20.03
2016-09-27T12:10:23.547Z,20.1
2016-09-27T12:11:24.233Z,20.16
2016-09-27T12:12:24.941Z,20.26
2016-09-27T12:13:25.650Z,20.24
2016-09-27T12:14:26.349Z,20.13
2016-09-27T12:15:27.057Z,20.18
2016-09-27T12:16:27.754Z,20.1
2016-09-27T12:17:28.465Z,20.11
2016-09-27T12:18:29.171Z,20.09
2016-09-27T12:19:29.881Z,20.09
2016-09-27T12:20:30.592Z,20.06
2016-09-27T12:21:31.311Z,20.02
2016-09-27T12:22:32.059Z,20.04
2016-09-27T12:23:32.751Z,19.95
2016-09-27T12:24:33.450Z,19.94
2016-09-27T12:25:34.160Z,20
2016-09-27T12:26:34.937Z,20
2016-09-27T12:27:35.638Z,20.04
2016-09-27T12:28:36.335Z,20.16
2016-09-27T12:29:37.201Z,20.11
2016-09-27T12:30:37.924Z,20.14
2016-09-27T12:31:38.645Z,19.96
2016-09-27T12:32:39.361Z,19.99
2016-09-27T12:33:40.092Z,19.95
2016-09-27T12:34:40.779Z,19.99
2016-09-27T12:35:41.479Z,20.04
2016-09-27T12:36:42.187Z,20.1
2016-09-27T12:37:42.885Z,20.02
2016-09-27T12:38:43.606Z,20.1
2016-09-27T12:39:44.326Z,20.13
2016-09-27T12:40:45.015Z,20.14
2016-09-27T12:41:45.721Z,20.14
2016-09-27T12:42:46.416Z,20.21
2016-09-27T12:43:47.117Z,20.26
2016-09-27T12:44:48.053Z,20.29
2016-09-27T12:45:48.991Z,20.29
2016-09-27T12:46:49.978Z,20.25
2016-09-27T12:47:50.879Z,20.24
2016-09-27T12:48:51.842Z,20.24
2016-09-27T12:49:52.859Z,20.19
2016-09-27T12:50:53.930Z,20.24
2016-09-27T12:51:54.894Z,20.28
2016-09-27T12:52:56.005Z,20.34
2016-09-27T12:53:57.082Z,20.43
2016-09-27T12:54:58.155Z,20.36
2016-09-27T12:55:59.251Z,20.28
2016-09-27T12:57:00.317Z,20.31
2016-09-27T12:58:01.417Z,20.4
2016-09-27T12:59:02.540Z,20.39
2016-09-27T13:00:03.655Z,20.44
2016-09-27T13:01:04.779Z,20.48
2016-09-27T13:02:06.342Z,20.44
2016-09-27T19:52:45.547Z,17.14
2016-09-27T19:53:46.318Z,17.11
2016-09-27T19:54:47.033Z,17.08
2016-09-27T19:55:47.764Z,17.16